CDT,Max TemperatureF,Mean TemperatureF,Min TemperatureF,Max Dew PointF,MeanDew PointF,Min DewpointF,Max Humidity, Mean Humidity, Min Humidity, Max Sea Level PressureIn, Mean Sea Level PressureIn, Min Sea Level PressureIn, Max VisibilityMiles, Mean VisibilityMiles, Min VisibilityMiles, Max Wind SpeedMPH, Mean Wind SpeedMPH, Max Gust SpeedMPH,PrecipitationIn, CloudCover, Events, WindDirDegrees
2013-6-1,82,74,66,70,67,64,94,86,62,30.04,29.97,29.88,10,7,0,16,5,21,0.30,4,Rain-Thunderstorm,199
2013-6-2,78,71,64,66,65,59,100,83,61,29.99,29.96,29.93,10,9,7,8,3,,0.00,4,Rain-Thunderstorm,324
2013-6-3,80,70,59,63,59,55,100,73,42,30.04,29.99,29.94,10,9,6,8,2,,0.00,1,,17
2013-6-4,82,70,59,68,62,57,94,73,54,30.03,29.99,29.94,10,8,5,8,2,,0.00,2,,79
2013-6-5,82,75,68,73,67,64,94,87,70,29.98,29.93,29.82,10,7,3,9,1,20,0.05,2,Rain-Thunderstorm,187
2013-6-6,82,74,66,66,65,64,94,79,54,29.88,29.84,29.77,9,8,5,10,3,,0.00,3,,312
2013-6-7,78,68,59,66,61,55,94,75,47,29.93,29.86,29.79,10,8,5,9,2,,0.00,1,,344
2013-6-8,82,68,55,61,55,48,100,65,32,30.03,29.98,29.92,10,9,6,7,1,,0.00,1,,191
2013-6-9,84,75,66,70,66,57,100,80,55,30.01,29.95,29.86,10,8,0,12,3,22,1.01,3,Rain-Thunderstorm,192
2013-6-10,86,76,66,70,68,66,100,76,51,29.99,29.96,29.93,10,8,2,13,5,22,0.00,2,,227
2013-6-11,91,81,71,73,71,68,88,71,52,30.08,30.03,29.98,10,8,5,10,6,,0.00,0,,235
2013-6-12,91,81,71,73,72,70,94,73,52,30.11,30.04,29.98,8,6,5,13,5,17,0.00,0,,231
2013-6-13,91,81,71,73,70,63,94,70,49,30.01,29.96,29.88,10,7,5,13,7,22,0.00,0,,290
2013-6-14,84,72,60,64,60,54,100,68,42,30.06,30.02,29.97,10,8,5,13,3,17,0.00,0,,52
2013-6-15,86,72,59,66,61,57,100,68,42,30.10,30.05,30.00,10,9,7,7,1,,0.00,0,,155
2013-6-16,87,76,64,75,69,63,100,80,55,30.08,30.03,29.98,10,7,3,12,2,20,0.01,0,Rain-Thunderstorm,227
2013-6-17,80,74,68,72,69,66,100,90,70,30.04,29.97,29.89,10,6,2,12,2,28,0.24,1,Rain-Thunderstorm,216
2013-6-18,80,74,68,73,68,64,100,83,58,30.00,29.95,29.87,10,7,4,10,4,,0.00,3,,317
2013-6-19,86,75,64,70,65,59,100,74,40,30.07,30.03,29.97,10,7,3,7,1,,0.00,1,,58
2013-6-20,89,76,64,70,66,59,100,71,40,30.16,30.11,30.07,10,8,4,5,1,,0.00,1,,116
2013-6-21,87,78,68,70,67,64,94,70,46,30.21,30.16,30.11,10,8,5,8,1,,0.00,1,Thunderstorm,168
2013-6-22,87,78,68,68,66,63,94,67,45,30.18,30.12,30.06,10,8,5,9,1,,0.00,0,,172
2013-6-23,87,78,68,70,65,63,88,67,46,30.15,30.09,30.05,10,8,5,7,1,,0.00,1,Thunderstorm,205
2013-6-24,89,80,71,72,69,66,88,70,49,30.17,30.11,30.05,10,8,2,8,2,,0.00,1,,194
2013-6-25,89,80,71,72,68,64,94,69,43,30.13,30.07,29.99,9,7,5,13,4,18,0.00,1,,214
2013-6-26,89,81,73,72,70,68,89,70,49,30.06,29.99,29.92,9,8,6,15,5,23,0.00,0,,221
2013-6-27,93,80,68,75,72,66,94,71,49,29.98,29.94,29.89,8,7,2,18,6,33,0.49,1,Rain-Thunderstorm,267
2013-6-28,84,76,68,73,71,68,100,91,62,29.97,29.84,29.75,10,6,1,9,1,21,0.67,1,Rain-Thunderstorm,309
2013-6-29,87,76,66,70,63,54,100,70,33,29.79,29.77,29.73,10,8,4,13,2,17,0.00,0,Rain,313
2013-6-30,80,70,59,64,61,59,100,74,48,29.86,29.80,29.74,10,9,7,12,3,16,0.00,1,,340